• Join FlightAware (Why Join?)
  • Login
  • US Flag 
07:25AM EST


 

Airport Tracker/Info


-or-


 

Live Flight TrackerFlight Track Log ✈ FDX1405 ✈ 19-Jul-2013 ✈ KMEM - KORD

Flight Track Log - Related Links

Times and Time Zones

All times are in EDT time to prevent confusion due to time zone crossing. See the FDX1405 flight status page for this flight to view local times or setup timezone preferences in your user account.

Time Position Orientation Groundspeed Altitude Reporting Facility
EDT Latitude Longitude Course Direction KTS MPH feet Rate Location/Type
05:07AM 35.0167 -89.9833 195° South 193 222 1,200  Level KMEM
05:08AM 34.9667 -90.0000 195° South 239 275 3,800 3,120 Climbing KMEM
05:09AM 34.9500 -90.1000 259° West 289 333 7,800 3,300 Climbing KMEM
05:10AM 35.0000 -90.1500 321° Northwest 318 366 10,800 2,220 Climbing KMEM
05:12AM 35.1553 -90.1386 North 391 450 13,400 1,920 Climbing Memphis Center
05:13AM 35.2761 -90.1181 North 417 480 15,600 2,220 Climbing Memphis Center
05:14AM 35.4056 -90.0997 North 446 513 17,900 2,280 Climbing Memphis Center
05:15AM 35.5389 -90.0789 North 469 540 20,200 2,100 Climbing Memphis Center
05:21AM 36.4100 -90.0560 North 504 580 33,300 1,980 Climbing FlightAware
05:21AM 36.5230 -90.0440 North 500 575 34,000 420 Climbing FlightAware
05:22AM 36.6230 -90.0340 North 503 579 34,000 480 Level FlightAware
05:23AM 36.7080 -90.0250 North 506 582 34,700 720 Climbing FlightAware
05:24AM 36.8060 -90.0150 North 494 568 35,000 180 Climbing FlightAware
05:24AM 36.8970 -90.0050 North 494 568 35,000  Level FlightAware
05:25AM 36.9830 -89.9950 North 495 570 35,000  Level FlightAware
05:26AM 37.0900 -89.9850 North 495 570 35,000  Level FlightAware
05:26AM 37.1830 -89.9770 North 495 570 35,000  Level FlightAware
05:27AM 37.2530 -89.9710 North 495 570 35,000  Level FlightAware
05:28AM 37.3930 -89.9520 North 498 573 35,000  Level FlightAware
05:29AM 37.5180 -89.9380 North 498 573 35,000  Level FlightAware
05:29AM 37.6030 -89.9310 North 498 573 35,000  Level FlightAware
05:30AM 37.7210 -89.9160 North 499 574 35,000  Level FlightAware
05:31AM 37.7940 -89.9100 North 499 574 35,000  Level FlightAware
05:32AM 37.8900 -89.9010 North 499 574 35,000  Level FlightAware
05:32AM 37.9390 -89.8660 29° Northeast 498 573 35,000  Level FlightAware
05:33AM 38.0350 -89.8220 20° North 499 574 35,000  Level FlightAware
05:33AM 38.1130 -89.7870 19° North 500 575 35,000  Level FlightAware
05:34AM 38.2460 -89.7260 20° North 497 572 35,000  Level FlightAware
05:35AM 38.3240 -89.6900 20° North 496 571 35,000  Level FlightAware
05:36AM 38.4570 -89.6290 20° North 497 572 35,000  Level FlightAware
05:36AM 38.5450 -89.5880 20° North 503 579 35,000  Level FlightAware
05:37AM 38.6250 -89.5510 20° North 509 586 35,000  Level FlightAware
05:38AM 38.7210 -89.5070 20° North 508 585 35,000  Level FlightAware
05:38AM 38.7900 -89.4750 20° North 508 585 35,000  Level FlightAware
05:39AM 38.8750 -89.4350 20° North 505 581 35,000  Level FlightAware
05:40AM 38.9730 -89.3890 20° North 509 586 35,000  Level FlightAware
05:40AM 39.0800 -89.3380 20° North 507 583 35,000  Level FlightAware
05:41AM 39.1630 -89.2990 20° North 506 582 35,000  Level FlightAware
05:42AM 39.2550 -89.2560 20° North 504 580 35,000  Level FlightAware
05:43AM 39.3340 -89.2190 20° North 503 579 35,000  Level FlightAware
05:43AM 39.4430 -89.1660 21° North 506 582 35,000  Level FlightAware
05:44AM 39.5340 -89.1240 20° North 504 580 35,000  Level FlightAware
05:44AM 39.6140 -89.0850 21° North 504 580 35,000  Level FlightAware
05:45AM 39.7060 -89.0410 20° North 505 581 35,000  Level FlightAware
05:46AM 39.7910 -89.0000 20° North 505 581 35,000  Level FlightAware
05:46AM 39.8770 -88.9580 21° North 505 581 35,000  Level FlightAware
05:47AM 39.9630 -88.9170 20° North 505 581 35,000  Level FlightAware
05:48AM 40.0530 -88.8730 21° North 505 581 35,000  Level FlightAware
05:48AM 40.1100 -88.8460 20° North 505 581 35,000  Level FlightAware
05:49AM 40.1970 -88.8040 20° North 506 582 35,000 -960 Level FlightAware
05:50AM 40.3220 -88.7430 20° North 505 581 33,700 -2,100 Descending FlightAware
05:51AM 40.4170 -88.6960 21° North 498 573 32,000 -2,340 Descending FlightAware
05:51AM 40.5040 -88.6520 21° North 487 560 30,400 -2,340 Descending FlightAware
05:52AM 40.5880 -88.6110 20° North 477 549 28,900 -2,280 Descending FlightAware
05:53AM 40.6830 -88.5650 20° North 464 534 27,200 -2,160 Descending FlightAware
05:53AM 40.7440 -88.5340 21° North 455 524 26,100 -2,400 Descending FlightAware
05:54AM 40.8320 -88.4910 20° North 453 521 24,200 -2,640 Descending FlightAware
05:55AM 40.9070 -88.4540 20° North 449 517 22,500 -2,640 Descending FlightAware
05:55AM 40.9790 -88.4190 20° North 447 514 20,900 -2,400 Descending FlightAware
05:56AM 41.0640 -88.3750 21° North 435 501 19,300 -2,160 Descending FlightAware
05:57AM 41.1390 -88.3370 21° North 425 489 17,900 -2,040 Descending FlightAware
05:57AM 41.2180 -88.2980 20° North 415 478 16,500 -1,980 Descending FlightAware
05:58AM 41.2890 -88.2610 21° North 407 468 15,200 -1,980 Descending FlightAware
05:59AM 41.3670 -88.2230 20° North 397 457 13,800 -1,920 Descending FlightAware
05:59AM 41.4310 -88.1900 21° North 390 449 12,600 -1,860 Descending FlightAware
06:00AM 41.4950 -88.1580 21° North 382 440 11,500 -1,260 Descending FlightAware
06:01AM 41.5600 -88.1240 21° North 374 430 11,000 -360 Descending FlightAware
06:01AM 41.6330 -88.0930 18° North 376 433 11,000  Level FlightAware
06:02AM 41.6810 -88.0860 North 367 422 11,000 -360 Level FlightAware
06:03AM 41.7270 -88.0830 North 347 399 10,600 -960 Descending FlightAware
06:03AM 41.7910 -88.0770 North 317 365 9,900 -1,440 Descending FlightAware
06:03AM 41.8170 -88.0750 North 305 351 9,600 -900 Descending FlightAware
06:04AM 41.8500 -88.0740 North 293 337 9,300 -1,020 Descending FlightAware
06:04AM 41.8970 -88.0710 North 290 334 8,600 -1,320 Descending FlightAware
06:05AM 41.9160 -88.0700 North 288 331 8,300 -1,200 Descending FlightAware
06:05AM 41.9310 -88.0690 North 287 330 8,100 -900 Descending FlightAware
06:05AM 41.9500 -88.0760 345° North 269 310 7,900 -780 Descending FlightAware
06:05AM 41.9650 -88.0940 318° Northwest 251 289 7,700 -780 Descending FlightAware
06:06AM 41.9840 -88.1160 319° Northwest 244 281 7,400 -780 Descending FlightAware
06:06AM 42.0040 -88.1350 325° Northwest 226 260 7,100 -660 Descending FlightAware
06:07AM 42.0280 -88.1600 322° Northwest 217 250 6,800 -660 Descending FlightAware
06:07AM 42.0390 -88.1710 323° Northwest 215 247 6,600 -1,140 Descending FlightAware
06:07AM 42.0600 -88.1910 325° Northwest 214 246 6,200 -1,140 Descending FlightAware
06:08AM 42.0840 -88.2100 330° Northwest 225 259 5,700 -1,260 Descending FlightAware
06:08AM 42.1160 -88.1930 22° Northeast 260 299 5,000 -1,440 Descending FlightAware
06:08AM 42.1250 -88.1780 51° Northeast 261 300 4,700 -1,320 Descending FlightAware
06:09AM 42.1310 -88.1550 71° East 264 304 4,400 -1,080 Descending FlightAware
06:09AM 42.1230 -88.0970 101° East 249 287 3,800 -780 Descending FlightAware
06:10AM 42.1160 -88.0610 105° East 225 259 3,600 -600 Descending FlightAware
06:10AM 42.1060 -88.0440 128° Southeast 195 224 3,400 -960 Descending FlightAware
06:10AM 42.0840 -88.0320 158° South 185 213 2,900 -960 Descending FlightAware
06:11AM 42.0660 -88.0180 150° Southeast 190 219 2,600 -780 Descending FlightAware
06:11AM 42.0550 -88.0060 141° Southeast 190 219 2,400 -840 Descending FlightAware
06:12AM 42.0370 -87.9860 140° Southeast 188 216 2,000 -1,020 Descending FlightAware
06:12AM 42.0180 -87.9640 139° Southeast 182 209 1,500 -1,200 Descending FlightAware
06:12AM 42.0090 -87.9550 143° Southeast 179 206 1,200 -960 Descending FlightAware
06:13AM 41.9850 -87.9270 139° Southeast 166 191 700 -780 Descending FlightAware
06:15AM 41.9700 -87.9200 161° South 21 24 -300 Descending FlightAware
06:16AM 41.9700 -87.9270 270° West 31 36  Level FlightAware
06:17AM 41.9670 -87.9270 180° South 16 18  Level FlightAware
06:17AM 41.9640 -87.9270 180° South 32 37  Level FlightAware
06:18AM 41.9630 -87.9270 180° South 24 28  Level FlightAware